createdAt,value
2018-05-24T00:00:44.530Z,54.25
2018-05-24T00:01:44.508Z,54.74
2018-05-24T00:02:44.501Z,54.55
2018-05-24T00:03:44.481Z,55.02
2018-05-24T00:04:44.465Z,55.02
2018-05-24T00:05:44.454Z,54.64
2018-05-24T00:06:44.439Z,55.12
2018-05-24T00:07:44.424Z,55.22
2018-05-24T00:08:44.413Z,54.16
2018-05-24T00:09:44.398Z,54.74
2018-05-24T00:10:44.394Z,54.83
2018-05-24T00:11:44.370Z,54.93
2018-05-24T00:12:44.354Z,55.32
2018-05-24T00:13:44.342Z,54.45
2018-05-24T00:14:44.330Z,54.25
2018-05-24T00:15:44.319Z,54.74
2018-05-24T00:16:44.301Z,54.64
2018-05-24T00:17:44.286Z,54.74
2018-05-24T00:18:44.283Z,54.55
2018-05-24T00:19:44.257Z,54.16
2018-05-24T00:20:44.243Z,54.74
2018-05-24T00:21:44.230Z,54.25
2018-05-24T00:22:44.214Z,54.25
2018-05-24T00:23:44.203Z,54.25
2018-05-24T00:24:44.196Z,54.74
2018-05-24T00:25:44.173Z,54.35
2018-05-24T00:26:44.160Z,54.64
2018-05-24T00:27:44.148Z,54.16
2018-05-24T00:28:44.141Z,54.23
2018-05-24T00:29:44.117Z,54.52
2018-05-24T00:30:44.112Z,54.25
2018-05-24T00:31:44.092Z,54.33
2018-05-24T00:32:44.076Z,54.80
2018-05-24T00:33:44.064Z,54.13
2018-05-24T00:34:44.050Z,53.85
2018-05-24T00:35:44.035Z,53.85
2018-05-24T00:36:44.019Z,54.13
2018-05-24T00:37:44.004Z,54.33
2018-05-24T00:38:44.000Z,54.33
2018-05-24T00:39:43.977Z,53.56
2018-05-24T00:40:43.961Z,53.85
2018-05-24T00:41:43.955Z,53.94
2018-05-24T00:42:43.942Z,54.23
2018-05-24T00:43:43.919Z,54.23
2018-05-24T00:44:43.905Z,54.04
2018-05-24T00:45:43.892Z,54.33
2018-05-24T00:46:43.886Z,54.04
2018-05-24T00:47:43.864Z,53.75
2018-05-24T00:48:43.854Z,54.13
2018-05-24T00:49:43.842Z,54.52
2018-05-24T00:50:43.922Z,53.66
2018-05-24T00:51:43.807Z,54.42
2018-05-24T00:52:43.792Z,53.94
2018-05-24T00:53:43.778Z,54.13
2018-05-24T00:54:43.802Z,54.23
2018-05-24T00:55:43.743Z,53.94
2018-05-24T00:56:43.735Z,53.94
2018-05-24T00:57:43.714Z,54.04
2018-05-24T00:58:43.703Z,54.04
2018-05-24T00:59:43.690Z,54.13
2018-05-24T01:00:43.670Z,54.33
2018-05-24T01:01:43.657Z,54.04
2018-05-24T01:02:43.646Z,53.94
2018-05-24T01:03:43.631Z,53.94
2018-05-24T01:04:43.616Z,54.33
2018-05-24T01:05:43.599Z,54.13
2018-05-24T01:06:43.589Z,54.90
2018-05-24T01:07:43.572Z,54.13
2018-05-24T01:08:43.558Z,54.23
2018-05-24T01:09:43.543Z,54.42
2018-05-24T01:10:43.533Z,54.71
2018-05-24T01:11:43.558Z,54.23
2018-05-24T01:12:43.508Z,54.80
2018-05-24T01:13:43.495Z,54.58
2018-05-24T01:14:43.473Z,54.52
2018-05-24T01:15:43.490Z,54.97
2018-05-24T01:16:43.447Z,55.16
2018-05-24T01:17:43.436Z,54.88
2018-05-24T01:18:43.416Z,55.45
2018-05-24T01:19:43.401Z,55.64
2018-05-24T01:20:43.386Z,55.16
2018-05-24T01:21:43.373Z,55.35
2018-05-24T01:22:43.373Z,55.35
2018-05-24T01:23:43.345Z,54.97
2018-05-24T01:24:43.329Z,55.16
2018-05-24T01:25:43.314Z,55.26
2018-05-24T01:26:43.304Z,55.64
2018-05-24T01:27:43.288Z,55.83
2018-05-24T01:28:43.278Z,56.02
2018-05-24T01:29:43.257Z,55.35
2018-05-24T01:30:43.243Z,55.16
2018-05-24T01:31:43.229Z,55.55
2018-05-24T01:32:43.224Z,56.12
2018-05-24T01:33:43.201Z,55.74
2018-05-24T01:34:43.195Z,56.05
2018-05-24T01:35:43.173Z,55.64
2018-05-24T01:36:43.156Z,55.74
2018-05-24T01:37:43.144Z,55.74
2018-05-24T01:38:43.129Z,55.96
2018-05-24T01:39:43.115Z,55.67
2018-05-24T01:40:43.101Z,56.15
2018-05-24T01:41:43.086Z,55.57
2018-05-24T01:42:43.072Z,55.29
2018-05-24T01:43:43.057Z,55.67
2018-05-24T01:44:43.043Z,55.67
2018-05-24T01:45:43.029Z,56.05
2018-05-24T01:46:43.015Z,56.15
2018-05-24T01:47:43.001Z,55.77
2018-05-24T01:48:42.988Z,55.86
2018-05-24T01:49:42.973Z,56.12
2018-05-24T01:50:42.960Z,55.93
2018-05-24T01:51:42.945Z,56.02
2018-05-24T01:52:42.932Z,56.60
2018-05-24T01:53:42.917Z,56.41
2018-05-24T01:54:42.902Z,56.41
2018-05-24T01:55:42.887Z,56.63
2018-05-24T01:56:42.881Z,56.41
2018-05-24T01:57:42.858Z,55.67
2018-05-24T01:58:42.848Z,55.86
2018-05-24T01:59:42.830Z,56.22
2018-05-24T02:00:42.815Z,56.22
2018-05-24T02:01:42.802Z,56.31
2018-05-24T02:02:42.794Z,56.60
2018-05-24T02:03:42.774Z,57.08
2018-05-24T02:04:42.759Z,56.60
2018-05-24T02:05:42.750Z,57.08
2018-05-24T02:06:42.732Z,57.08
2018-05-24T02:07:42.723Z,57.18
2018-05-24T02:08:42.703Z,56.98
2018-05-24T02:09:42.691Z,57.46
2018-05-24T02:10:42.672Z,57.46
2018-05-24T02:11:42.659Z,57.46
2018-05-24T02:12:42.645Z,57.28
2018-05-24T02:13:42.630Z,57.37
2018-05-24T02:14:42.616Z,57.18
2018-05-24T02:15:42.601Z,57.85
2018-05-24T02:16:42.587Z,57.75
2018-05-24T02:17:42.573Z,57.75
2018-05-24T02:18:42.560Z,57.46
2018-05-24T02:19:42.545Z,57.65
2018-05-24T02:20:42.533Z,57.85
2018-05-24T02:21:42.514Z,58.33
2018-05-24T02:22:42.500Z,57.85
2018-05-24T02:23:42.487Z,58.52
2018-05-24T02:24:42.558Z,58.52
2018-05-24T02:25:42.459Z,58.42
2018-05-24T02:26:42.443Z,58.62
2018-05-24T02:27:42.429Z,58.33
2018-05-24T02:28:42.415Z,58.52
2018-05-24T02:29:42.399Z,58.81
2018-05-24T02:30:42.390Z,58.91
2018-05-24T02:31:42.373Z,59.09
2018-05-24T02:32:42.356Z,59.00
2018-05-24T02:33:42.342Z,58.81
2018-05-24T02:34:42.348Z,58.62
2018-05-24T02:35:42.414Z,58.81
2018-05-24T02:36:42.308Z,59.86
2018-05-24T02:37:42.399Z,59.77
2018-05-24T02:38:42.272Z,59.58
2018-05-24T02:39:42.268Z,60.15
2018-05-24T02:40:42.241Z,59.38
2018-05-24T02:41:42.235Z,59.29
2018-05-24T02:42:42.216Z,60.35
2018-05-24T02:43:42.299Z,59.77
2018-05-24T02:44:42.194Z,60.05
2018-05-24T02:45:42.170Z,60.25
2018-05-24T02:46:42.155Z,59.29
2018-05-24T02:47:42.141Z,59.67
2018-05-24T02:48:42.127Z,59.77
2018-05-24T02:49:42.113Z,60.15
2018-05-24T02:50:42.098Z,59.96
2018-05-24T02:51:42.092Z,59.86
2018-05-24T02:52:42.077Z,60.25
2018-05-24T02:53:42.054Z,59.86
2018-05-24T02:54:42.040Z,60.05
2018-05-24T02:55:42.026Z,59.86
2018-05-24T02:56:42.019Z,59.86
2018-05-24T02:57:41.997Z,59.67
2018-05-24T02:58:41.982Z,60.15
2018-05-24T02:59:41.969Z,59.96
2018-05-24T03:00:41.953Z,59.48
2018-05-24T03:01:41.972Z,59.67
2018-05-24T03:02:41.925Z,59.67
2018-05-24T03:03:41.911Z,59.67
2018-05-24T03:04:41.895Z,59.67
2018-05-24T03:05:41.889Z,59.77
2018-05-24T03:06:41.875Z,59.96
2018-05-24T03:07:41.854Z,59.96
2018-05-24T03:08:41.838Z,59.86
2018-05-24T03:09:41.826Z,60.25
2018-05-24T03:10:41.810Z,59.67
2018-05-24T03:11:41.799Z,59.77
2018-05-24T03:12:41.781Z,60.25
2018-05-24T03:13:41.775Z,59.86
2018-05-24T03:14:41.755Z,60.15
2018-05-24T03:15:41.741Z,60.05
2018-05-24T03:16:41.727Z,60.25
2018-05-24T03:17:41.711Z,60.44
2018-05-24T03:18:41.695Z,60.82
2018-05-24T03:19:41.684Z,60.82
2018-05-24T03:20:41.669Z,60.05
2018-05-24T03:21:41.653Z,59.86
2018-05-24T03:22:41.637Z,60.15
2018-05-24T03:23:41.626Z,60.63
2018-05-24T03:24:41.615Z,60.15
2018-05-24T03:25:41.596Z,60.35
2018-05-24T03:26:41.581Z,60.35
2018-05-24T03:27:41.569Z,60.25
2018-05-24T03:28:41.551Z,60.05
2018-05-24T03:29:41.539Z,60.82
2018-05-24T03:30:41.522Z,60.35
2018-05-24T03:31:41.512Z,60.05
2018-05-24T03:32:41.494Z,60.92
2018-05-24T03:33:41.496Z,60.72
2018-05-24T03:34:41.468Z,60.72
2018-05-24T03:35:41.451Z,60.53
2018-05-24T03:36:41.439Z,59.96
2018-05-24T03:37:41.439Z,60.53
2018-05-24T03:38:41.418Z,60.25
2018-05-24T03:39:41.395Z,60.35
2018-05-24T03:40:41.388Z,60.53
2018-05-24T03:41:41.366Z,60.63
2018-05-24T03:42:41.352Z,60.35
2018-05-24T03:43:41.352Z,60.63
2018-05-24T03:44:41.330Z,60.82
2018-05-24T03:45:41.461Z,60.82
2018-05-24T03:46:41.302Z,60.63
2018-05-24T03:47:41.283Z,60.82
2018-05-24T03:48:41.269Z,60.92
2018-05-24T03:49:41.254Z,60.35
2018-05-24T03:50:41.241Z,60.44
2018-05-24T03:51:41.224Z,61.21
2018-05-24T03:52:41.208Z,60.05
2018-05-24T03:53:41.204Z,60.44
2018-05-24T03:54:41.190Z,61.21
2018-05-24T03:55:41.168Z,61.11
2018-05-24T03:56:41.151Z,60.92
2018-05-24T03:57:41.231Z,60.92
2018-05-24T03:58:41.124Z,60.92
2018-05-24T03:59:41.109Z,60.63
2018-05-24T04:00:41.098Z,60.72
2018-05-24T04:01:41.081Z,61.11
2018-05-24T04:02:41.066Z,61.02
2018-05-24T04:03:41.052Z,61.30
2018-05-24T04:04:41.039Z,61.59
2018-05-24T04:05:41.037Z,61.49
2018-05-24T04:06:41.012Z,61.30
2018-05-24T04:07:40.998Z,61.11
2018-05-24T04:08:40.993Z,61.30
2018-05-24T04:09:40.969Z,61.40
2018-05-24T04:10:40.954Z,61.11
2018-05-24T04:11:40.939Z,61.11
2018-05-24T04:12:40.925Z,61.40
2018-05-24T04:13:40.929Z,60.53
2018-05-24T04:14:40.895Z,60.63
2018-05-24T04:15:40.888Z,61.02
2018-05-24T04:16:40.867Z,60.44
2018-05-24T04:17:40.854Z,60.15
2018-05-24T04:18:40.839Z,60.35
2018-05-24T04:19:40.825Z,60.75
2018-05-24T04:20:40.812Z,60.08
2018-05-24T04:21:40.797Z,60.05
2018-05-24T04:22:40.783Z,60.47
2018-05-24T04:23:40.771Z,60.38
2018-05-24T04:24:40.755Z,60.18
2018-05-24T04:25:40.748Z,60.28
2018-05-24T04:26:40.739Z,60.38
2018-05-24T04:27:40.713Z,60.18
2018-05-24T04:28:40.699Z,60.08
2018-05-24T04:29:40.684Z,60.66
2018-05-24T04:30:40.680Z,60.38
2018-05-24T04:31:40.659Z,60.75
2018-05-24T04:32:40.644Z,61.43
2018-05-24T04:33:40.628Z,61.69
2018-05-24T04:34:40.615Z,62.01
2018-05-24T04:35:40.602Z,62.48
2018-05-24T04:36:40.588Z,62.68
2018-05-24T04:37:40.573Z,62.68
2018-05-24T04:38:40.559Z,63.25
2018-05-24T04:39:40.556Z,62.96
2018-05-24T04:40:40.531Z,63.25
2018-05-24T04:41:40.523Z,63.25
2018-05-24T04:42:40.504Z,63.16
2018-05-24T04:43:40.495Z,62.87
2018-05-24T04:44:40.475Z,63.06
2018-05-24T04:45:40.461Z,63.25
2018-05-24T04:46:40.449Z,63.16
2018-05-24T04:47:40.437Z,63.73
2018-05-24T04:48:40.419Z,63.73
2018-05-24T04:49:40.413Z,64.02
2018-05-24T04:50:40.393Z,63.35
2018-05-24T04:51:40.380Z,63.73
2018-05-24T04:52:40.394Z,63.64
2018-05-24T04:53:40.349Z,63.64
2018-05-24T04:54:40.337Z,63.64
2018-05-24T04:55:40.395Z,63.92
2018-05-24T04:56:40.307Z,63.92
2018-05-24T04:57:40.299Z,63.83
2018-05-24T04:58:40.282Z,63.35
2018-05-24T04:59:40.269Z,63.83
2018-05-24T05:00:40.252Z,64.22
2018-05-24T05:01:40.318Z,64.12
2018-05-24T05:02:40.225Z,64.12
2018-05-24T05:03:40.212Z,64.02
2018-05-24T05:04:40.199Z,64.12
2018-05-24T05:05:40.184Z,64.02
2018-05-24T05:06:40.171Z,64.02
2018-05-24T05:07:40.164Z,64.12
2018-05-24T05:08:40.143Z,64.50
2018-05-24T05:09:40.128Z,64.31
2018-05-24T05:10:40.115Z,64.02
2018-05-24T05:11:40.112Z,63.92
2018-05-24T05:12:40.104Z,64.22
2018-05-24T05:13:40.075Z,63.92
2018-05-24T05:14:40.172Z,64.02
2018-05-24T05:15:40.051Z,64.12
2018-05-24T05:16:40.035Z,64.40
2018-05-24T05:17:40.023Z,64.02
2018-05-24T05:18:40.006Z,63.16
2018-05-24T05:19:39.993Z,63.16
2018-05-24T05:20:39.979Z,63.06
2018-05-24T05:21:39.968Z,63.83
2018-05-24T05:22:39.951Z,63.57
2018-05-24T05:23:39.939Z,63.19
2018-05-24T05:24:39.926Z,63.57
2018-05-24T05:25:39.912Z,62.90
2018-05-24T05:26:39.902Z,63.19
2018-05-24T05:27:39.885Z,62.90
2018-05-24T05:28:39.870Z,63.67
2018-05-24T05:29:39.900Z,63.19
2018-05-24T05:30:39.922Z,62.23
2018-05-24T05:31:39.835Z,62.52
2018-05-24T05:32:39.826Z,63.48
2018-05-24T05:33:39.804Z,62.32
2018-05-24T05:34:39.791Z,62.32
2018-05-24T05:35:39.785Z,62.42
2018-05-24T05:36:39.765Z,62.71
2018-05-24T05:37:39.760Z,62.81
2018-05-24T05:38:39.787Z,62.23
2018-05-24T05:39:39.725Z,62.32
2018-05-24T05:40:39.712Z,61.87
2018-05-24T05:41:39.747Z,61.68
2018-05-24T05:42:39.684Z,61.65
2018-05-24T05:43:39.672Z,61.65
2018-05-24T05:44:39.657Z,61.97
2018-05-24T05:45:39.644Z,61.87
2018-05-24T05:46:39.633Z,61.97
2018-05-24T05:47:39.623Z,61.68
2018-05-24T05:48:39.607Z,61.81
2018-05-24T05:49:39.594Z,61.81
2018-05-24T05:50:39.595Z,61.14
2018-05-24T05:51:39.567Z,60.27
2018-05-24T05:52:39.558Z,60.37
2018-05-24T05:53:39.546Z,60.27
2018-05-24T05:54:39.530Z,60.21
2018-05-24T05:55:39.522Z,60.39
2018-05-24T05:56:39.503Z,60.01
2018-05-24T05:57:39.490Z,58.95
2018-05-24T05:58:39.477Z,58.98
2018-05-24T05:59:39.466Z,58.12
2018-05-24T06:00:39.456Z,56.41
2018-05-24T06:01:39.544Z,55.57
2018-05-24T06:02:39.429Z,55.96
2018-05-24T06:03:39.431Z,56.41
2018-05-24T06:04:39.406Z,56.25
2018-05-24T06:05:39.394Z,56.25
2018-05-24T06:06:39.382Z,56.41
2018-05-24T06:07:39.374Z,56.35
2018-05-24T06:08:39.359Z,55.67
2018-05-24T06:09:39.448Z,55.67
2018-05-24T06:10:39.362Z,55.41
2018-05-24T06:11:39.325Z,54.64
2018-05-24T06:12:39.312Z,55.12
2018-05-24T06:13:39.302Z,55.57
2018-05-24T06:14:39.291Z,55.87
2018-05-24T06:15:39.280Z,55.60
2018-05-24T06:16:39.270Z,54.38
2018-05-24T06:17:39.257Z,53.99
2018-05-24T06:18:39.247Z,53.80
2018-05-24T06:19:39.245Z,53.05
2018-05-24T06:20:39.225Z,52.47
2018-05-24T06:21:39.436Z,52.76
2018-05-24T06:22:39.203Z,52.93
2018-05-24T06:23:39.193Z,54.25
2018-05-24T06:24:39.190Z,55.57
2018-05-24T06:25:39.174Z,56.41
2018-05-24T06:26:39.167Z,57.37
2018-05-24T06:27:39.152Z,58.22
2018-05-24T06:28:39.145Z,57.92
2018-05-24T06:29:39.134Z,58.47
2018-05-24T06:30:39.120Z,59.63
2018-05-24T06:31:39.112Z,60.30
2018-05-24T06:32:39.101Z,60.49
2018-05-24T06:33:39.093Z,60.21
2018-05-24T06:34:39.081Z,60.49
2018-05-24T06:35:39.070Z,60.49
2018-05-24T06:36:39.057Z,60.72
2018-05-24T06:37:39.055Z,60.04
2018-05-24T06:38:39.038Z,60.04
2018-05-24T06:39:39.033Z,60.42
2018-05-24T06:40:39.055Z,60.04
2018-05-24T06:41:39.026Z,59.94
2018-05-24T06:42:38.992Z,59.85
2018-05-24T06:43:38.982Z,59.30
2018-05-24T06:44:38.983Z,58.15
2018-05-24T06:45:38.958Z,58.75
2018-05-24T06:46:38.947Z,58.08
2018-05-24T06:47:38.935Z,57.50
2018-05-24T06:48:38.935Z,57.14
2018-05-24T06:49:38.914Z,56.57
2018-05-24T06:50:38.903Z,55.82
2018-05-24T06:51:38.894Z,55.89
2018-05-24T06:52:38.883Z,56.27
2018-05-24T06:53:38.932Z,56.66
2018-05-24T06:54:38.861Z,56.30
2018-05-24T06:55:38.859Z,56.01
2018-05-24T06:56:38.898Z,55.27
2018-05-24T06:57:38.830Z,54.31
2018-05-24T06:58:38.822Z,54.40
2018-05-24T06:59:38.819Z,54.14
2018-05-24T07:00:38.801Z,54.05
2018-05-24T07:01:38.794Z,53.11
2018-05-24T07:02:38.786Z,52.14
2018-05-24T07:03:38.782Z,52.14
2018-05-24T07:04:38.772Z,52.69
2018-05-24T07:05:38.763Z,53.01
2018-05-24T07:06:38.747Z,52.62
2018-05-24T07:07:38.737Z,52.72
2018-05-24T07:08:38.727Z,52.31
2018-05-24T07:09:38.732Z,52.79
2018-05-24T07:10:38.713Z,52.91
2018-05-24T07:11:38.707Z,51.85
2018-05-24T07:12:38.702Z,51.29
2018-05-24T07:13:38.703Z,51.95
2018-05-24T07:14:38.733Z,52.81
2018-05-24T07:15:38.669Z,52.84
2018-05-24T07:16:38.662Z,51.97
2018-05-24T07:17:38.659Z,51.59
2018-05-24T07:18:38.711Z,52.17
2018-05-24T07:19:38.638Z,51.20
2018-05-24T07:20:38.638Z,52.62
2018-05-24T07:21:38.621Z,52.81
2018-05-24T07:22:38.615Z,52.65
2018-05-24T07:23:38.608Z,51.78
2018-05-24T07:24:38.696Z,51.39
2018-05-24T07:25:38.592Z,51.42
2018-05-24T07:26:38.586Z,51.29
2018-05-24T07:27:38.582Z,51.59
2018-05-24T07:28:38.574Z,51.87
2018-05-24T07:29:38.569Z,52.26
2018-05-24T07:30:38.561Z,52.26
2018-05-24T07:31:38.553Z,52.45
2018-05-24T07:32:38.548Z,52.72
2018-05-24T07:33:38.548Z,53.20
2018-05-24T07:34:38.535Z,53.88
2018-05-24T07:35:38.529Z,53.30
2018-05-24T07:36:38.519Z,53.69
2018-05-24T07:37:38.535Z,54.07
2018-05-24T07:38:38.507Z,53.97
2018-05-24T07:39:38.591Z,54.07
2018-05-24T07:40:38.503Z,53.88
2018-05-24T07:41:38.486Z,52.91
2018-05-24T07:42:38.476Z,54.07
2018-05-24T07:43:38.471Z,54.07
2018-05-24T07:44:38.470Z,54.27
2018-05-24T07:45:38.454Z,53.95
2018-05-24T07:46:38.447Z,55.46
2018-05-24T07:47:38.438Z,55.94
2018-05-24T07:48:38.438Z,55.76
2018-05-24T07:49:38.423Z,56.33
2018-05-24T07:50:38.420Z,56.79
2018-05-24T07:51:38.408Z,56.81
2018-05-24T07:52:38.397Z,56.16
2018-05-24T07:53:38.388Z,55.88
2018-05-24T07:54:38.380Z,55.40
2018-05-24T07:55:38.380Z,54.91
2018-05-24T07:56:38.365Z,55.40
2018-05-24T07:57:38.356Z,54.72
2018-05-24T07:58:38.350Z,55.30
2018-05-24T07:59:38.343Z,55.49
2018-05-24T08:00:38.326Z,55.68
2018-05-24T08:01:38.348Z,55.68
2018-05-24T08:02:38.312Z,55.71
2018-05-24T08:03:38.300Z,55.81
2018-05-24T08:04:38.290Z,54.94
2018-05-24T08:05:38.283Z,54.94
2018-05-24T08:06:38.273Z,54.46
2018-05-24T08:07:38.266Z,54.84
2018-05-24T08:08:38.272Z,54.49
2018-05-24T08:09:38.250Z,54.39
2018-05-24T08:10:38.258Z,54.39
2018-05-24T08:11:38.231Z,54.03
2018-05-24T08:12:38.222Z,53.64
2018-05-24T08:13:38.212Z,53.74
2018-05-24T08:14:38.291Z,53.38
2018-05-24T08:15:38.195Z,53.09
2018-05-24T08:16:38.200Z,53.09
2018-05-24T08:17:38.177Z,54.32
2018-05-24T08:18:38.171Z,55.35
2018-05-24T08:19:38.171Z,55.77
2018-05-24T08:20:38.153Z,54.25
2018-05-24T08:21:38.147Z,54.32
2018-05-24T08:22:38.265Z,54.41
2018-05-24T08:23:38.135Z,54.35
2018-05-24T08:24:38.120Z,53.99
2018-05-24T08:25:38.110Z,52.92
2018-05-24T08:26:38.105Z,52.89
2018-05-24T08:27:38.094Z,54.17
2018-05-24T08:28:38.089Z,53.02
2018-05-24T08:29:38.175Z,53.11
2018-05-24T08:30:38.079Z,53.11
2018-05-24T08:31:38.072Z,52.82
2018-05-24T08:32:38.055Z,53.02
2018-05-24T08:33:38.046Z,52.82
2018-05-24T08:34:38.037Z,52.27
2018-05-24T08:35:38.030Z,51.88
2018-05-24T08:36:38.021Z,52.14
2018-05-24T08:37:38.014Z,51.90
2018-05-24T08:38:38.008Z,52.17
2018-05-24T08:39:37.997Z,52.08
2018-05-24T08:40:38.079Z,51.40
2018-05-24T08:41:38.066Z,51.42
2018-05-24T08:42:37.973Z,51.23
2018-05-24T08:43:37.966Z,52.08
2018-05-24T08:44:37.958Z,53.02
2018-05-24T08:45:37.960Z,52.95
2018-05-24T08:46:37.941Z,52.85
2018-05-24T08:47:37.934Z,53.99
2018-05-24T08:48:37.924Z,54.17
2018-05-24T08:49:37.918Z,53.89
2018-05-24T08:50:37.918Z,53.72
2018-05-24T08:51:37.902Z,53.17
2018-05-24T08:52:37.898Z,52.29
2018-05-24T08:53:37.895Z,52.03
2018-05-24T08:54:37.966Z,51.64
2018-05-24T08:55:37.870Z,50.89
2018-05-24T08:56:37.871Z,50.87
2018-05-24T08:57:37.855Z,51.06
2018-05-24T08:58:37.849Z,50.87
2018-05-24T08:59:37.849Z,51.25
2018-05-24T09:00:37.834Z,51.32
2018-05-24T09:01:37.827Z,51.72
2018-05-24T09:02:37.817Z,52.29
2018-05-24T09:03:37.820Z,52.82
2018-05-24T09:04:37.804Z,53.89
2018-05-24T09:05:37.797Z,53.63
2018-05-24T09:06:37.798Z,53.45
2018-05-24T09:07:37.796Z,52.68
2018-05-24T09:08:37.868Z,52.00
2018-05-24T09:09:37.777Z,52.20
2018-05-24T09:10:37.769Z,51.64
2018-05-24T09:11:37.758Z,50.48
2018-05-24T09:12:37.749Z,50.57
2018-05-24T09:13:37.753Z,50.50
2018-05-24T09:14:37.735Z,50.57
2018-05-24T09:15:37.750Z,51.13
2018-05-24T09:16:37.731Z,52.00
2018-05-24T09:17:37.716Z,52.10
2018-05-24T09:18:37.711Z,52.12
2018-05-24T09:19:37.703Z,50.60
2018-05-24T09:20:37.697Z,50.34
2018-05-24T09:21:37.696Z,49.87
2018-05-24T09:22:37.689Z,48.83
2018-05-24T09:23:37.686Z,48.54
2018-05-24T09:24:37.675Z,48.05
2018-05-24T09:25:37.668Z,49.17
2018-05-24T09:26:37.663Z,50.14
2018-05-24T09:27:37.666Z,49.75
2018-05-24T09:28:37.648Z,49.82
2018-05-24T09:29:37.718Z,49.10
2018-05-24T09:30:37.639Z,48.47
2018-05-24T09:31:37.633Z,49.90
2018-05-24T09:32:37.633Z,50.19
2018-05-24T09:33:37.625Z,50.67
2018-05-24T09:34:37.616Z,50.12
2018-05-24T09:35:37.631Z,50.57
2018-05-24T09:36:37.613Z,50.84
2018-05-24T09:37:37.600Z,51.18
2018-05-24T09:38:37.595Z,50.60
2018-05-24T09:39:37.591Z,50.29
2018-05-24T09:40:37.584Z,50.87
2018-05-24T09:41:37.577Z,50.12
2018-05-24T09:42:37.574Z,50.57
2018-05-24T09:43:37.568Z,49.46
2018-05-24T09:44:37.570Z,49.07
2018-05-24T09:45:37.562Z,49.07
2018-05-24T09:46:37.558Z,48.52
2018-05-24T09:47:37.550Z,48.66
2018-05-24T09:48:37.608Z,49.92
2018-05-24T09:49:37.542Z,51.32
2018-05-24T09:50:37.592Z,50.89
2018-05-24T09:51:37.536Z,49.82
2018-05-24T09:52:37.531Z,50.41
2018-05-24T09:53:37.528Z,50.99
2018-05-24T09:54:37.528Z,50.70
2018-05-24T09:55:37.523Z,50.14
2018-05-24T09:56:37.517Z,49.56
2018-05-24T09:57:37.512Z,49.10
2018-05-24T09:58:37.508Z,47.86
2018-05-24T09:59:37.506Z,47.11
2018-05-24T10:00:37.516Z,46.47
2018-05-24T10:01:37.496Z,47.78
2018-05-24T10:02:37.491Z,47.59
2018-05-24T10:03:37.489Z,47.49
2018-05-24T10:04:37.498Z,47.69
2018-05-24T10:05:37.491Z,46.59
2018-05-24T10:06:37.478Z,44.76
2018-05-24T10:07:37.475Z,43.50
2018-05-24T10:08:37.471Z,45.50
2018-05-24T10:09:37.468Z,46.45
2018-05-24T10:10:37.639Z,47.49
2018-05-24T10:11:37.460Z,48.18
2018-05-24T10:12:37.462Z,47.91
2018-05-24T10:13:37.455Z,47.40
2018-05-24T10:14:37.451Z,47.08
2018-05-24T10:15:37.448Z,47.96
2018-05-24T10:16:37.546Z,48.52
2018-05-24T10:17:37.440Z,51.16
2018-05-24T10:18:37.445Z,51.90
2018-05-24T10:19:37.431Z,52.20
2018-05-24T10:20:37.433Z,52.87
2018-05-24T10:21:37.423Z,52.78
2018-05-24T10:22:37.426Z,53.26
2018-05-24T10:23:37.435Z,53.19
2018-05-24T10:24:37.408Z,53.39
2018-05-24T10:25:37.407Z,53.19
2018-05-24T10:26:37.400Z,53.19
2018-05-24T10:27:37.401Z,53.22
2018-05-24T10:28:37.386Z,52.86
2018-05-24T10:29:37.382Z,52.93
2018-05-24T10:30:37.377Z,53.99
2018-05-24T10:31:37.371Z,54.43
2018-05-24T10:32:37.368Z,55.49
2018-05-24T10:33:37.368Z,56.07
2018-05-24T10:34:37.361Z,56.07
2018-05-24T10:35:37.352Z,55.76
2018-05-24T10:36:37.362Z,55.68
2018-05-24T10:37:37.334Z,56.16
2018-05-24T10:38:37.335Z,55.88
2018-05-24T10:39:37.347Z,56.52
2018-05-24T10:40:37.314Z,57.56
2018-05-24T10:41:37.309Z,58.44
2018-05-24T10:42:37.305Z,58.53
2018-05-24T10:43:37.308Z,59.76
2018-05-24T10:44:37.296Z,59.28
2018-05-24T10:45:37.279Z,59.95
2018-05-24T10:46:37.276Z,59.86
2018-05-24T10:47:37.265Z,60.11
2018-05-24T10:48:37.264Z,60.31
2018-05-24T10:49:37.247Z,60.02
2018-05-24T10:50:37.240Z,59.70
2018-05-24T10:51:39.854Z,60.38
2018-05-24T10:52:37.223Z,60.86
2018-05-24T10:53:37.214Z,60.96
2018-05-24T10:54:37.214Z,60.02
2018-05-24T10:55:37.201Z,59.92
2018-05-24T10:56:37.276Z,58.86
2018-05-24T10:57:37.184Z,59.15
2018-05-24T10:58:37.175Z,59.44
2018-05-24T10:59:37.233Z,59.66
2018-05-24T11:00:37.242Z,58.82
2018-05-24T11:01:37.148Z,58.98
2018-05-24T11:02:37.167Z,58.63
2018-05-24T11:03:37.138Z,57.50
2018-05-24T11:04:37.144Z,56.92
2018-05-24T11:05:37.113Z,56.72
2018-05-24T11:06:37.110Z,56.82
2018-05-24T11:07:37.106Z,56.34
2018-05-24T11:08:37.170Z,55.66
2018-05-24T11:09:37.078Z,56.24
2018-05-24T11:10:37.073Z,56.16
2018-05-24T11:11:37.143Z,55.13
2018-05-24T11:12:37.056Z,53.99
2018-05-24T11:13:37.048Z,54.45
2018-05-24T11:14:37.041Z,54.52
2018-05-24T11:15:37.043Z,55.00
2018-05-24T11:16:37.029Z,55.66
2018-05-24T11:17:37.025Z,56.14
2018-05-24T11:18:37.014Z,55.88
2018-05-24T11:19:37.008Z,56.04
2018-05-24T11:20:36.998Z,56.24
2018-05-24T11:21:36.993Z,57.01
2018-05-24T11:22:36.987Z,56.72
2018-05-24T11:23:36.980Z,56.43
2018-05-24T11:24:36.988Z,57.08
2018-05-24T11:25:36.964Z,57.01
2018-05-24T11:26:37.019Z,56.92
2018-05-24T11:27:36.957Z,56.82
2018-05-24T11:28:36.953Z,57.76
2018-05-24T11:29:36.936Z,58.63
2018-05-24T11:30:36.930Z,58.44
2018-05-24T11:31:36.925Z,58.44
2018-05-24T11:32:36.923Z,58.44
2018-05-24T11:33:36.910Z,58.14
2018-05-24T11:34:36.910Z,58.92
2018-05-24T11:35:36.901Z,58.89
2018-05-24T11:36:36.884Z,58.89
2018-05-24T11:37:36.877Z,59.83
2018-05-24T11:38:36.865Z,59.63
2018-05-24T11:39:36.858Z,59.73
2018-05-24T11:40:36.857Z,60.69
2018-05-24T11:41:36.840Z,60.31
2018-05-24T11:42:36.831Z,60.02
2018-05-24T11:43:36.827Z,60.02
2018-05-24T11:44:36.824Z,59.76
2018-05-24T11:45:36.808Z,59.18
2018-05-24T11:46:36.811Z,59.47
2018-05-24T11:47:36.799Z,59.18
2018-05-24T11:48:36.799Z,59.56
2018-05-24T11:49:36.770Z,59.56
2018-05-24T11:50:36.764Z,59.28
2018-05-24T11:51:36.752Z,59.95
2018-05-24T11:52:36.751Z,60.11
2018-05-24T11:53:36.736Z,60.38
2018-05-24T11:54:36.730Z,60.86
2018-05-24T11:55:36.719Z,61.60
2018-05-24T11:56:36.704Z,61.99
2018-05-24T11:57:36.703Z,62.08
2018-05-24T11:58:36.687Z,61.99
2018-05-24T11:59:36.679Z,62.37
2018-05-24T12:00:36.669Z,61.99
2018-05-24T12:01:39.359Z,61.99
2018-05-24T12:02:36.647Z,61.80
2018-05-24T12:03:36.639Z,61.51
2018-05-24T12:04:36.646Z,61.89
2018-05-24T12:05:36.617Z,62.37
2018-05-24T12:06:36.626Z,62.95
2018-05-24T12:07:36.598Z,62.86
2018-05-24T12:08:36.596Z,62.57
2018-05-24T12:09:36.587Z,62.57
2018-05-24T12:10:36.569Z,63.05
2018-05-24T12:11:36.560Z,62.57
2018-05-24T12:12:36.549Z,63.05
2018-05-24T12:13:36.542Z,62.86
2018-05-24T12:14:36.529Z,62.76
2018-05-24T12:15:36.517Z,63.24
2018-05-24T12:16:36.506Z,62.66
2018-05-24T12:17:36.497Z,62.28
2018-05-24T12:18:36.486Z,62.86
2018-05-24T12:19:36.477Z,62.18
2018-05-24T12:20:36.466Z,62.08
2018-05-24T12:21:36.462Z,61.92
2018-05-24T12:22:36.464Z,62.02
2018-05-24T12:23:36.437Z,62.95
2018-05-24T12:24:36.428Z,63.34
2018-05-24T12:25:36.416Z,64.40
2018-05-24T12:26:36.406Z,64.40
2018-05-24T12:27:36.403Z,64.31
2018-05-24T12:28:36.389Z,64.21
2018-05-24T12:29:36.381Z,64.50
2018-05-24T12:30:36.373Z,64.31
2018-05-24T12:31:36.357Z,64.79
2018-05-24T12:32:36.341Z,65.37
2018-05-24T12:33:36.338Z,66.88
2018-05-24T12:34:36.323Z,67.94
2018-05-24T12:35:36.490Z,67.27
2018-05-24T12:36:36.311Z,67.20
2018-05-24T12:37:36.293Z,66.53
2018-05-24T12:38:36.348Z,66.69
2018-05-24T12:39:36.286Z,67.27
2018-05-24T12:40:36.260Z,67.17
2018-05-24T12:41:36.301Z,66.40
2018-05-24T12:42:36.246Z,66.14
2018-05-24T12:43:36.229Z,65.37
2018-05-24T12:44:36.223Z,65.14
2018-05-24T12:45:36.218Z,66.11
2018-05-24T12:46:36.200Z,66.01
2018-05-24T12:47:36.196Z,65.72
2018-05-24T12:48:36.186Z,65.17
2018-05-24T12:49:36.167Z,65.24
2018-05-24T12:50:36.167Z,66.40
2018-05-24T12:51:36.147Z,66.59
2018-05-24T12:52:36.134Z,66.94